Time;durP1;ratioP1;P1;durP2;ratioP2;P2;SDS_P1;SDS_P2;PMS_P1;PMS_P2;Temp;Humidity;BMP_temperature;BMP_pressure;BME280_temperature;BME280_humidity;BME280_pressure;Samples;Min_cycle;Max_cycle;Signal;HPM_P1;HPM_P2
2021/04/26 00:00:21;;;;;;;8.88;2.38;;;;;;;5.69;49.46;96372.75;5072676;28;20355;-65
2021/04/26 00:02:46;;;;;;;8.02;2.40;;;;;;;5.66;49.71;96370.56;5073011;28;20055;-65
2021/04/26 00:05:14;;;;;;;8.05;2.47;;;;;;;5.63;49.72;96373.56;5075846;28;20111;-64
2021/04/26 00:07:40;;;;;;;8.02;2.28;;;;;;;5.57;50.14;96372.56;5073325;28;20038;-65
2021/04/26 00:10:09;;;;;;;7.95;2.42;;;;;;;5.57;49.94;96361.31;5072353;28;20048;-65
2021/04/26 00:12:34;;;;;;;7.25;2.20;;;;;;;5.56;50.15;96359.72;5054634;28;20051;-65
2021/04/26 00:15:03;;;;;;;7.97;2.42;;;;;;;5.44;50.70;96355.09;5072965;28;20048;-64
2021/04/26 00:17:28;;;;;;;7.75;2.30;;;;;;;5.49;50.79;96336.25;5073492;28;20095;-64
2021/04/26 00:19:54;;;;;;;12.27;3.00;;;;;;;5.47;50.85;96351.28;5074972;28;20446;-64
2021/04/26 00:22:20;;;;;;;9.48;2.83;;;;;;;5.44;51.23;96341.25;5074935;28;20559;-65
2021/04/26 00:24:45;;;;;;;10.32;3.40;;;;;;;5.37;51.56;96333.41;5073248;28;20411;-65
2021/04/26 00:27:12;;;;;;;8.63;2.90;;;;;;;5.24;52.37;96334.19;5073558;28;20154;-64
2021/04/26 00:29:37;;;;;;;8.02;2.97;;;;;;;5.20;52.36;96338.19;5072784;28;20054;-64
2021/04/26 00:32:03;;;;;;;8.63;3.03;;;;;;;5.16;52.56;96336.19;5072404;28;20119;-64
2021/04/26 00:34:31;;;;;;;9.98;3.15;;;;;;;5.08;53.13;96328.56;5072556;28;20124;-66
2021/04/26 00:36:57;;;;;;;10.82;2.90;;;;;;;5.03;53.33;96325.75;5072222;28;20063;-65
2021/04/26 00:39:22;;;;;;;9.52;4.03;;;;;;;4.94;53.80;96322.50;5072341;28;20048;-64
2021/04/26 00:41:48;;;;;;;11.00;3.67;;;;;;;4.88;54.22;96318.88;5072293;28;20498;-64
2021/04/26 00:44:14;;;;;;;11.00;3.85;;;;;;;4.84;54.75;96315.06;5072849;28;20083;-64
2021/04/26 00:46:40;;;;;;;11.65;3.85;;;;;;;4.80;55.32;96305.25;5075552;28;20135;-64
2021/04/26 00:49:06;;;;;;;10.95;3.95;;;;;;;4.74;55.12;96296.41;5096993;22;20076;-70
2021/04/26 00:51:34;;;;;;;9.73;3.50;;;;;;;4.75;55.19;96292.81;5078867;28;20079;-70
2021/04/26 00:53:59;;;;;;;9.85;3.53;;;;;;;4.67;55.63;96285.94;5074891;28;20111;-70
2021/04/26 00:56:25;;;;;;;8.75;3.38;;;;;;;4.65;55.51;96287.16;5073426;28;20036;-70
2021/04/26 00:58:51;;;;;;;12.07;3.72;;;;;;;4.63;55.42;96281.34;5072503;28;20041;-70
2021/04/26 01:01:20;;;;;;;7.70;3.30;;;;;;;4.65;55.48;96294.97;5054590;28;20389;-70
2021/04/26 01:03:46;;;;;;;9.55;3.70;;;;;;;4.65;55.36;96287.16;5054097;28;20033;-70
2021/04/26 01:06:14;;;;;;;8.50;3.63;;;;;;;4.61;55.65;96286.72;5073061;28;20044;-70
2021/04/26 01:08:42;;;;;;;9.65;3.55;;;;;;;4.57;56.01;96295.13;5073237;28;20075;-69
2021/04/26 01:11:08;;;;;;;9.70;3.72;;;;;;;4.51;55.88;96296.72;5072557;28;20418;-70
2021/04/26 01:13:45;;;;;;;10.10;3.90;;;;;;;4.44;56.86;96299.31;5072568;28;20051;-70
2021/04/26 01:16:15;;;;;;;10.50;3.63;;;;;;;4.39;56.46;96296.47;5072494;28;20480;-68
2021/04/26 01:18:49;;;;;;;10.90;4.05;;;;;;;4.35;56.84;96300.47;5072379;28;20049;-70
2021/04/26 01:22:00;;;;;;;10.75;3.88;;;;;;;4.34;57.03;96301.47;5071929;28;20037;-68
2021/04/26 01:24:52;;;;;;;11.35;4.05;;;;;;;4.28;56.98;96297.03;5071880;28;20040;-69
2021/04/26 01:27:27;;;;;;;10.57;4.85;;;;;;;4.21;57.40;96304.81;5071811;28;20048;-69
2021/04/26 01:30:06;;;;;;;9.48;3.88;;;;;;;4.14;57.69;96290.97;5072152;28;20162;-70
2021/04/26 01:32:39;;;;;;;9.88;3.80;;;;;;;4.10;57.48;96288.94;5081308;28;20045;-70
2021/04/26 01:35:06;;;;;;;10.10;4.13;;;;;;;4.01;58.40;96288.28;5071773;28;20503;-69
2021/04/26 01:37:35;;;;;;;10.70;3.92;;;;;;;3.99;58.17;96284.28;5071905;28;20098;-71
2021/04/26 01:40:03;;;;;;;9.40;4.20;;;;;;;3.97;57.65;96275.84;5072087;28;20060;-70
2021/04/26 01:42:31;;;;;;;12.10;4.10;;;;;;;3.91;57.77;96280.84;5073859;28;20044;-70
2021/04/26 01:45:00;;;;;;;14.45;5.25;;;;;;;3.89;58.40;96287.22;5072583;28;20056;-70
2021/04/26 01:47:27;;;;;;;12.98;4.63;;;;;;;3.86;58.36;96287.59;5071369;28;20522;-69
2021/04/26 01:49:54;;;;;;;11.48;4.20;;;;;;;3.81;58.41;96290.78;5071394;28;20478;-69
2021/04/26 01:52:20;;;;;;;12.93;4.85;;;;;;;3.79;58.48;96287.56;5077307;28;20411;-69
2021/04/26 01:54:50;;;;;;;10.25;4.05;;;;;;;3.69;58.78;96297.50;5074677;28;20044;-68
2021/04/26 01:57:16;;;;;;;13.57;4.65;;;;;;;3.62;59.83;96302.69;5073926;28;20033;-70
2021/04/26 01:59:42;;;;;;;9.98;4.28;;;;;;;3.56;59.87;96294.84;5072177;28;20086;-70
2021/04/26 02:02:07;;;;;;;10.90;4.50;;;;;;;3.57;60.17;96299.03;5070810;28;20046;-69
2021/04/26 02:04:35;;;;;;;9.35;4.13;;;;;;;3.50;60.22;96291.19;5071312;28;20402;-70
2021/04/26 02:07:04;;;;;;;11.40;4.28;;;;;;;3.51;60.25;96292.00;5052983;28;20404;-69
2021/04/26 02:09:33;;;;;;;11.13;4.07;;;;;;;3.43;60.36;96283.31;5074442;28;20072;-70
2021/04/26 02:12:00;;;;;;;10.15;4.07;;;;;;;3.39;60.50;96287.31;5075425;28;20055;-69
2021/04/26 02:14:27;;;;;;;9.82;4.00;;;;;;;3.31;61.03;96294.44;5075478;28;20056;-69
2021/04/26 02:16:53;;;;;;;11.40;4.72;;;;;;;3.22;61.67;96298.16;5057326;28;20048;-69
2021/04/26 02:19:19;;;;;;;11.75;4.68;;;;;;;3.32;60.72;96301.22;5078805;28;20048;-69
2021/04/26 02:21:45;;;;;;;10.98;4.72;;;;;;;3.25;60.92;96296.00;5078058;28;20037;-70
2021/04/26 02:24:12;;;;;;;10.90;4.70;;;;;;;3.30;60.95;96278.03;5087826;28;20036;-70
2021/04/26 02:26:38;;;;;;;11.18;4.35;;;;;;;3.22;61.08;96280.75;5068789;28;20044;-69
2021/04/26 02:29:04;;;;;;;9.68;4.43;;;;;;;3.22;60.61;96278.16;5067517;28;20079;-69
2021/04/26 02:31:32;;;;;;;14.40;4.55;;;;;;;3.11;61.14;96263.06;5076755;28;20045;-68
2021/04/26 02:34:04;;;;;;;11.95;4.53;;;;;;;3.08;61.64;96268.66;5075791;28;20109;-71
2021/04/26 02:36:33;;;;;;;11.27;4.10;;;;;;;3.03;61.49;96263.22;5075467;28;20423;-69
2021/04/26 02:39:05;;;;;;;10.40;3.95;;;;;;;3.02;61.64;96266.81;5075437;28;20415;-69
2021/04/26 02:41:35;;;;;;;9.90;4.20;;;;;;;2.95;61.91;96264.13;5075082;28;20063;-70
2021/04/26 02:44:06;;;;;;;11.90;4.70;;;;;;;3.03;62.15;96260.63;5075296;28;20406;-68
2021/04/26 02:46:34;;;;;;;12.32;4.55;;;;;;;2.99;62.26;96259.38;5075154;28;20055;-69
2021/04/26 02:49:02;;;;;;;11.50;4.82;;;;;;;2.91;63.06;96249.91;5073734;28;20041;-69
2021/04/26 02:51:29;;;;;;;13.30;4.60;;;;;;;2.92;61.73;96248.13;5073832;28;20403;-70
2021/04/26 02:54:01;;;;;;;13.35;4.05;;;;;;;2.88;61.80;96238.09;5074390;28;20435;-70
2021/04/26 02:56:27;;;;;;;11.60;4.75;;;;;;;2.90;61.74;96238.69;5074513;28;20070;-69
2021/04/26 02:58:58;;;;;;;13.38;5.03;;;;;;;2.89;61.83;96237.09;5074583;28;20381;-70
2021/04/26 03:01:25;;;;;;;9.73;4.40;;;;;;;2.86;61.74;96234.09;5074302;28;20051;-69
2021/04/26 03:03:51;;;;;;;11.85;5.05;;;;;;;2.82;61.77;96218.06;5056482;28;20131;-68
2021/04/26 03:06:18;;;;;;;11.43;5.25;;;;;;;2.92;60.89;96219.53;5074734;28;20052;-69
2021/04/26 03:08:46;;;;;;;11.55;4.82;;;;;;;2.87;61.59;96220.91;5074713;28;20037;-69
2021/04/26 03:11:14;;;;;;;10.60;4.00;;;;;;;2.81;61.31;96216.47;5074735;28;20139;-69
2021/04/26 03:13:40;;;;;;;11.02;4.70;;;;;;;2.93;60.77;96213.34;5082824;28;20120;-70
2021/04/26 03:16:07;;;;;;;12.25;4.95;;;;;;;2.86;60.98;96214.09;5060911;28;20071;-69
2021/04/26 03:18:34;;;;;;;11.77;4.75;;;;;;;2.80;60.82;96206.25;5075445;28;20052;-70
2021/04/26 03:21:01;;;;;;;10.45;4.45;;;;;;;2.81;60.58;96216.47;5077415;28;20121;-70
2021/04/26 03:23:27;;;;;;;12.40;5.40;;;;;;;2.85;60.48;96211.66;5082681;28;20056;-70
2021/04/26 03:25:56;;;;;;;9.70;4.15;;;;;;;2.87;60.57;96205.31;5062306;28;20045;-69
2021/04/26 03:28:23;;;;;;;12.18;4.60;;;;;;;2.87;61.80;96204.50;5075346;28;20490;-69
2021/04/26 03:30:51;;;;;;;11.20;4.85;;;;;;;2.83;60.92;96206.69;5075541;28;20064;-68
2021/04/26 03:33:18;;;;;;;13.43;4.90;;;;;;;2.80;60.44;96196.69;5077345;28;20050;-69
2021/04/26 03:35:46;;;;;;;11.57;4.97;;;;;;;2.90;59.89;96198.94;5056325;28;20040;-70
2021/04/26 03:38:15;;;;;;;11.38;4.65;;;;;;;2.75;60.61;96203.41;5074023;28;20071;-68
2021/04/26 03:40:41;;;;;;;11.35;4.25;;;;;;;2.69;60.72;96201.53;5073896;28;20048;-68
2021/04/26 03:43:07;;;;;;;11.45;4.80;;;;;;;2.65;60.41;96195.13;5073972;28;20044;-68
2021/04/26 03:45:33;;;;;;;10.75;4.50;;;;;;;2.57;61.65;96203.84;5074130;28;20465;-70
2021/04/26 03:47:59;;;;;;;10.98;4.40;;;;;;;2.63;60.66;96205.69;5074037;28;20105;-69
2021/04/26 03:50:26;;;;;;;10.60;4.97;;;;;;;2.65;60.35;96189.94;5055761;28;20320;-69
2021/04/26 03:52:52;;;;;;;11.25;4.43;;;;;;;2.66;60.01;96192.34;5073920;28;20040;-68
2021/04/26 03:55:20;;;;;;;11.15;4.18;;;;;;;2.69;60.36;96191.97;5055689;28;20499;-69
2021/04/26 03:57:46;;;;;;;;;;;;;;;2.66;60.62;96194.94;5074268;28;20048;-70
2021/04/26 04:00:14;;;;;;;11.07;4.18;;;;;;;2.54;60.49;96199.84;5073526;28;20357;-68
2021/04/26 04:02:39;;;;;;;10.07;4.28;;;;;;;2.53;60.27;96189.59;5055835;28;20053;-69
2021/04/26 04:05:07;;;;;;;10.13;4.75;;;;;;;2.52;60.13;96180.22;5073505;28;20109;-68
2021/04/26 04:07:36;;;;;;;11.57;4.27;;;;;;;2.48;60.51;96185.00;5073396;28;20070;-69
2021/04/26 04:10:03;;;;;;;10.77;4.93;;;;;;;2.54;60.17;96179.06;5073442;28;20052;-69
2021/04/26 04:12:29;;;;;;;11.32;4.55;;;;;;;2.54;60.35;96175.66;5074075;28;20144;-69
2021/04/26 04:14:55;;;;;;;10.57;4.47;;;;;;;2.48;60.25;96187.59;5073624;28;20567;-73
2021/04/26 04:17:20;;;;;;;11.43;4.65;;;;;;;2.43;61.05;96179.56;5073581;28;20527;-70
2021/04/26 04:19:46;;;;;;;12.05;4.88;;;;;;;2.44;60.56;96188.16;5073602;28;20049;-68
2021/04/26 04:22:11;;;;;;;13.25;4.53;;;;;;;2.43;60.53;96176.16;5073521;28;20037;-70
2021/04/26 04:24:38;;;;;;;11.05;4.55;;;;;;;2.45;60.33;96176.75;5058750;28;20040;-70
2021/04/26 04:27:04;;;;;;;12.73;4.70;;;;;;;2.49;60.20;96170.22;5065085;28;20040;-68
2021/04/26 04:29:30;;;;;;;11.77;4.53;;;;;;;2.45;60.82;96180.16;5074476;28;20068;-70
2021/04/26 04:31:56;;;;;;;12.48;4.90;;;;;;;2.53;60.21;96172.25;5060882;28;20051;-69
2021/04/26 04:34:23;;;;;;;12.32;5.22;;;;;;;2.50;60.16;96171.81;5075528;28;20045;-68
2021/04/26 04:36:50;;;;;;;13.23;4.38;;;;;;;2.55;59.96;96175.47;5055524;28;20078;-69
2021/04/26 04:39:16;;;;;;;10.57;4.85;;;;;;;2.58;59.49;96180.31;5055335;28;20040;-70
2021/04/26 04:41:44;;;;;;;12.35;4.63;;;;;;;2.60;60.06;96187.91;5073808;28;20051;-70
2021/04/26 04:44:10;;;;;;;10.98;4.63;;;;;;;2.58;59.46;96189.84;5055378;28;20435;-69
2021/04/26 04:46:36;;;;;;;12.00;4.60;;;;;;;2.57;60.04;96188.25;5073382;28;20040;-69
2021/04/26 04:49:02;;;;;;;11.52;4.50;;;;;;;2.60;59.54;96193.09;5073619;28;20050;-70
2021/04/26 04:51:27;;;;;;;11.02;4.03;;;;;;;2.71;59.10;96195.19;5055699;28;20047;-68
2021/04/26 04:53:53;;;;;;;12.93;4.75;;;;;;;2.75;60.18;96195.63;5073886;28;20446;-70
2021/04/26 04:56:19;;;;;;;11.82;4.68;;;;;;;3.19;58.37;96192.78;5077750;28;20040;-68
2021/04/26 04:58:46;;;;;;;12.02;5.15;;;;;;;3.64;56.79;96195.81;5080221;28;20047;-70
2021/04/26 05:01:12;;;;;;;12.85;4.88;;;;;;;3.89;55.73;96198.75;5073318;28;20048;-69
2021/04/26 05:03:38;;;;;;;10.05;4.57;;;;;;;4.04;55.44;96193.41;5072848;28;20119;-70
2021/04/26 05:06:04;;;;;;;10.55;4.30;;;;;;;4.31;53.85;96197.72;5079875;28;20075;-70
2021/04/26 05:08:32;;;;;;;11.85;4.15;;;;;;;4.54;53.13;96193.94;5075824;28;20166;-69
2021/04/26 05:10:57;;;;;;;11.55;4.70;;;;;;;4.50;53.23;96188.31;5072421;28;20111;-69
2021/04/26 05:13:23;;;;;;;10.43;4.80;;;;;;;4.57;53.04;96201.34;5054867;28;20131;-69
2021/04/26 05:15:50;;;;;;;12.02;4.68;;;;;;;4.86;52.26;96190.56;5072546;28;20033;-71
2021/04/26 05:18:16;;;;;;;8.75;3.83;;;;;;;5.69;49.63;96196.09;5072772;28;20044;-70
2021/04/26 05:20:45;;;;;;;11.18;4.82;;;;;;;5.43;49.92;96196.16;5054327;28;20041;-69
2021/04/26 05:23:11;;;;;;;12.50;4.47;;;;;;;5.50;50.28;96187.31;5072400;28;20048;-69
2021/04/26 05:25:40;;;;;;;10.20;4.70;;;;;;;5.41;51.77;96196.34;5072547;28;20038;-69
2021/04/26 05:28:08;;;;;;;10.57;4.03;;;;;;;5.27;50.67;96197.38;5054391;28;20040;-70
2021/04/26 05:30:34;;;;;;;13.25;4.30;;;;;;;5.47;50.31;96197.34;5072919;28;20583;-70
2021/04/26 05:33:01;;;;;;;11.95;4.05;;;;;;;5.64;49.17;96195.09;5072712;28;20048;-70
2021/04/26 05:35:26;;;;;;;11.18;4.40;;;;;;;5.05;51.51;96203.81;5072209;28;20499;-70
2021/04/26 05:37:53;;;;;;;11.77;4.47;;;;;;;5.35;50.74;96212.03;5071898;28;20088;-70
2021/04/26 05:40:19;;;;;;;10.82;4.57;;;;;;;4.82;51.53;96206.81;5072215;28;20442;-69
2021/04/26 05:42:45;;;;;;;9.57;4.47;;;;;;;4.89;51.49;96200.59;5071601;28;20553;-69
2021/04/26 05:45:11;;;;;;;9.23;4.43;;;;;;;5.14;52.07;96206.00;5072163;28;20044;-70
2021/04/26 05:47:37;;;;;;;12.00;5.07;;;;;;;5.38;51.29;96203.78;5074755;28;20102;-69
2021/04/26 05:50:05;;;;;;;10.60;4.63;;;;;;;5.37;50.46;96200.38;5075914;28;20102;-69
2021/04/26 05:52:30;;;;;;;11.02;4.75;;;;;;;5.28;51.21;96196.38;5056944;28;20094;-71
2021/04/26 05:54:56;;;;;;;11.23;4.72;;;;;;;5.37;50.76;96192.53;5072566;28;20040;-69
2021/04/26 05:57:22;;;;;;;10.85;4.50;;;;;;;5.58;50.47;96194.13;5072719;28;20055;-69
2021/04/26 05:59:47;;;;;;;12.95;4.68;;;;;;;6.03;48.27;96197.63;5072334;28;20079;-69
2021/04/26 06:02:13;;;;;;;11.30;4.50;;;;;;;5.91;49.58;96206.25;5072023;28;20569;-70
2021/04/26 06:04:39;;;;;;;11.15;4.50;;;;;;;5.79;49.22;96208.72;5074153;28;20495;-70
2021/04/26 06:07:06;;;;;;;10.18;4.85;;;;;;;6.06;49.79;96206.84;5072705;28;20040;-69
2021/04/26 06:09:31;;;;;;;14.57;5.10;;;;;;;6.00;49.98;96208.47;5072891;28;20559;-69
2021/04/26 06:11:57;;;;;;;13.35;4.65;;;;;;;6.26;48.83;96207.56;5054031;28;20049;-69
2021/04/26 06:14:23;;;;;;;11.43;4.60;;;;;;;6.37;49.65;96203.50;5072100;28;20086;-71
2021/04/26 06:16:48;;;;;;;11.48;4.72;;;;;;;6.11;48.73;96208.84;5054184;28;20387;-70
2021/04/26 06:19:14;;;;;;;10.60;4.85;;;;;;;6.41;49.15;96203.91;5072363;28;20550;-70
2021/04/26 06:21:40;;;;;;;12.35;4.80;;;;;;;6.66;47.71;96211.78;5071774;28;20045;-69
2021/04/26 06:24:07;;;;;;;11.10;4.93;;;;;;;6.63;48.05;96212.22;5054121;28;20075;-70
2021/04/26 06:26:33;;;;;;;11.07;5.30;;;;;;;6.42;47.70;96208.91;5071708;28;20049;-71
2021/04/26 06:28:59;;;;;;;13.35;5.03;;;;;;;6.08;48.67;96219.69;5071710;28;20284;-71
2021/04/26 06:31:24;;;;;;;12.30;5.22;;;;;;;5.99;49.81;96206.88;5071745;28;20051;-71
2021/04/26 06:33:50;;;;;;;10.77;4.93;;;;;;;6.42;48.47;96203.69;5071961;28;20495;-70
2021/04/26 06:36:16;;;;;;;13.52;5.25;;;;;;;6.42;48.92;96211.50;5071772;28;20064;-69
2021/04/26 06:38:41;;;;;;;11.38;4.82;;;;;;;5.88;50.17;96204.88;5053553;28;20408;-69
2021/04/26 06:41:08;;;;;;;12.07;4.97;;;;;;;5.59;51.11;96205.34;5054081;28;20040;-70
2021/04/26 06:43:34;;;;;;;12.25;5.32;;;;;;;5.66;53.09;96206.94;5077099;28;20066;-69
2021/04/26 06:46:00;;;;;;;11.57;4.90;;;;;;;5.51;52.19;96204.56;5085940;28;20040;-69
2021/04/26 06:48:25;;;;;;;11.32;5.25;;;;;;;5.38;52.75;96209.00;5100774;22;20068;-64
2021/04/26 06:50:51;;;;;;;13.20;5.15;;;;;;;5.19;52.48;96202.81;5074181;28;20052;-64
2021/04/26 06:53:17;;;;;;;13.55;5.40;;;;;;;5.22;53.26;96205.03;5077324;28;20040;-66
2021/04/26 06:55:43;;;;;;;12.93;4.82;;;;;;;5.25;53.25;96205.41;5080025;28;20044;-65
2021/04/26 06:58:10;;;;;;;12.52;5.05;;;;;;;5.27;52.91;96213.00;5080825;28;20041;-65
2021/04/26 07:00:35;;;;;;;10.90;5.00;;;;;;;5.42;53.07;96200.56;5063138;28;20070;-65
2021/04/26 07:03:03;;;;;;;11.77;5.40;;;;;;;5.72;51.90;96202.72;5080411;28;20195;-66
2021/04/26 07:05:29;;;;;;;13.50;5.53;;;;;;;6.17;50.01;96198.34;5076025;28;20045;-66
2021/04/26 07:07:55;;;;;;;10.80;4.93;;;;;;;6.42;50.80;96208.91;5075660;28;20281;-66
2021/04/26 07:10:20;;;;;;;9.93;5.18;;;;;;;5.87;50.92;96202.47;5075888;28;20040;-66
2021/04/26 07:12:46;;;;;;;11.98;5.13;;;;;;;5.90;51.39;96196.84;5058162;28;20463;-69
2021/04/26 07:15:17;;;;;;;11.32;5.18;;;;;;;5.86;52.04;96196.44;5076037;28;20048;-66
2021/04/26 07:17:43;;;;;;;15.20;5.53;;;;;;;6.12;50.48;96200.00;5057408;28;20045;-66
2021/04/26 07:20:11;;;;;;;12.38;5.38;;;;;;;6.20;51.55;96186.72;5057131;28;20048;-65
2021/04/26 07:22:37;;;;;;;11.80;5.13;;;;;;;6.56;50.44;96197.38;5075518;28;20048;-67
2021/04/26 07:25:04;;;;;;;12.75;5.68;;;;;;;6.70;48.99;96198.06;5075487;28;20033;-65
2021/04/26 07:27:30;;;;;;;11.55;5.07;;;;;;;7.39;47.44;96196.34;5075108;28;20056;-66
2021/04/26 07:29:55;;;;;;;11.82;5.05;;;;;;;7.71;47.47;96198.84;5057328;28;20048;-66
2021/04/26 07:32:22;;;;;;;13.38;6.30;;;;;;;7.83;46.62;96199.72;5075754;28;20442;-66
2021/04/26 07:34:48;;;;;;;15.70;5.70;;;;;;;8.24;45.70;96199.03;5075131;28;20040;-66
2021/04/26 07:37:13;;;;;;;13.77;5.20;;;;;;;8.63;44.02;96202.97;5075443;28;20041;-66
2021/04/26 07:39:39;;;;;;;11.32;4.90;;;;;;;8.84;44.14;96208.75;5074749;28;20106;-66
2021/04/26 07:42:05;;;;;;;11.75;5.00;;;;;;;8.89;44.48;96199.19;5056736;28;20040;-65
2021/04/26 07:44:31;;;;;;;10.00;4.78;;;;;;;9.36;42.38;96195.78;5075326;28;20033;-66
2021/04/26 07:46:58;;;;;;;14.88;5.35;;;;;;;9.84;41.65;96194.75;5075287;28;20377;-66
2021/04/26 07:49:25;;;;;;;11.70;5.50;;;;;;;9.72;41.20;96195.56;5056686;28;20122;-65
2021/04/26 07:51:51;;;;;;;11.93;5.55;;;;;;;9.88;40.77;96190.63;5074687;28;20051;-66
2021/04/26 07:54:16;;;;;;;11.55;5.25;;;;;;;9.94;41.03;96195.75;5074738;28;20044;-66
2021/04/26 07:56:44;;;;;;;11.90;5.35;;;;;;;10.04;40.30;96192.53;5075199;28;20040;-65
2021/04/26 07:59:10;;;;;;;10.77;5.20;;;;;;;11.11;38.66;96194.50;5074983;28;20051;-67
2021/04/26 08:01:37;;;;;;;14.63;5.50;;;;;;;10.89;38.12;96198.88;5060400;28;20127;-66
2021/04/26 08:04:03;;;;;;;10.75;5.30;;;;;;;10.44;39.46;96186.53;5078295;28;20070;-66
2021/04/26 08:06:31;;;;;;;12.73;5.40;;;;;;;10.27;40.46;96190.91;5077767;28;20063;-66
2021/04/26 08:08:58;;;;;;;13.68;5.47;;;;;;;10.56;40.28;96184.63;5076767;28;20495;-66
2021/04/26 08:11:24;;;;;;;12.57;5.35;;;;;;;11.08;38.88;96197.59;5075888;28;20127;-66
2021/04/26 08:13:50;;;;;;;10.82;5.18;;;;;;;11.29;37.83;96189.00;5076315;28;20067;-67
2021/04/26 08:16:15;;;;;;;12.10;4.90;;;;;;;12.21;36.63;96178.91;5074584;28;20448;-66
2021/04/26 08:18:41;;;;;;;11.63;5.65;;;;;;;12.46;35.36;96186.31;5074164;28;20128;-66
2021/04/26 08:21:07;;;;;;;12.02;5.35;;;;;;;12.92;35.46;96184.94;5073658;28;20068;-66
2021/04/26 08:23:36;;;;;;;11.85;5.70;;;;;;;12.00;36.87;96176.06;5074569;28;20048;-66
2021/04/26 08:26:02;;;;;;;12.88;5.50;;;;;;;12.66;35.59;96180.47;5074114;28;20648;-66
2021/04/26 08:28:32;;;;;;;12.45;5.55;;;;;;;12.41;36.65;96180.97;5074106;28;20446;-66
2021/04/26 08:31:00;;;;;;;10.35;5.10;;;;;;;12.17;36.29;96177.81;5073413;28;20041;-66
2021/04/26 08:33:26;;;;;;;12.68;5.50;;;;;;;11.85;37.44;96172.44;5074303;28;20040;-66
2021/04/26 08:35:52;;;;;;;10.32;5.45;;;;;;;11.50;36.76;96170.84;5074763;28;20120;-67
2021/04/26 08:38:17;;;;;;;11.10;5.18;;;;;;;12.85;35.13;96168.47;5075088;28;20113;-66
2021/04/26 08:40:44;;;;;;;12.20;5.57;;;;;;;13.92;32.76;96164.75;5055769;28;20067;-67
2021/04/26 08:43:10;;;;;;;13.52;5.68;;;;;;;13.17;35.17;96171.13;5074647;28;20085;-66
2021/04/26 08:45:38;;;;;;;9.27;5.18;;;;;;;12.50;35.75;96172.38;5074834;28;20124;-67
2021/04/26 08:48:06;;;;;;;11.25;5.07;;;;;;;13.41;34.23;96170.81;5055832;28;20051;-66
2021/04/26 08:50:32;;;;;;;11.48;5.43;;;;;;;13.29;34.75;96169.16;5073550;28;20040;-66
2021/04/26 08:52:58;;;;;;;10.32;5.47;;;;;;;12.84;34.85;96162.41;5073762;28;20500;-67
2021/04/26 08:55:23;;;;;;;10.57;5.45;;;;;;;12.80;36.69;96166.59;5076387;28;20048;-66
2021/04/26 08:57:50;;;;;;;11.75;5.97;;;;;;;12.42;36.04;96179.94;5076485;28;20447;-66
2021/04/26 09:00:19;;;;;;;11.80;5.65;;;;;;;12.98;35.08;96175.22;5073612;28;20091;-67
2021/04/26 09:02:50;;;;;;;13.75;5.82;;;;;;;12.57;35.94;96167.69;5073550;28;20055;-67
2021/04/26 09:05:24;;;;;;;11.63;5.53;;;;;;;13.05;34.20;96157.31;5055531;28;20068;-67
2021/04/26 09:07:51;;;;;;;11.43;5.53;;;;;;;12.86;35.11;96157.69;5055387;28;20503;-68
2021/04/26 09:10:44;;;;;;;9.38;5.50;;;;;;;13.12;35.38;96153.38;5072830;28;20112;-66
2021/04/26 09:13:35;;;;;;;15.10;5.65;;;;;;;11.45;38.07;96157.63;5072921;28;20518;-66
2021/04/26 09:16:03;;;;;;;12.10;5.53;;;;;;;11.19;39.73;96152.00;5071556;28;20136;-67
2021/04/26 09:18:47;;;;;;;;;;;;;;;10.95;40.94;96153.97;5072992;28;20090;-66
2021/04/26 09:21:19;;;;;;;12.50;6.45;;;;;;;11.30;38.85;96158.22;5072216;28;20430;-66
2021/04/26 09:23:48;;;;;;;11.15;5.47;;;;;;;11.74;38.26;96148.53;5072493;28;20064;-66
2021/04/26 09:26:29;;;;;;;13.07;6.38;;;;;;;11.22;38.82;96146.22;5054534;28;20060;-66
2021/04/26 09:29:12;;;;;;;12.90;5.25;;;;;;;10.97;39.94;96149.25;5072706;28;20068;-66
2021/04/26 09:31:41;;;;;;;15.07;6.13;;;;;;;11.48;38.90;96150.03;5054780;28;20128;-66
2021/04/26 09:34:34;;;;;;;11.27;5.47;;;;;;;11.16;39.22;96147.19;5073429;28;20052;-66
2021/04/26 09:37:10;;;;;;;12.32;5.68;;;;;;;11.06;39.56;96135.72;5072353;28;20044;-66
2021/04/26 09:39:56;;;;;;;14.23;6.13;;;;;;;10.79;40.19;96149.50;5072400;28;20051;-66
2021/04/26 09:42:46;;;;;;;12.73;6.20;;;;;;;11.06;41.05;96133.88;5073242;28;20049;-66
2021/04/26 09:45:22;;;;;;;12.13;5.75;;;;;;;11.16;39.14;96128.78;5073124;28;20086;-66
2021/04/26 09:47:49;;;;;;;11.68;5.85;;;;;;;11.42;38.21;96119.41;5072410;28;20044;-66
2021/04/26 09:50:15;;;;;;;12.05;5.82;;;;;;;11.24;38.73;96128.34;5072955;28;20094;-66
2021/04/26 09:52:56;;;;;;;12.32;5.95;;;;;;;11.57;38.24;96126.72;5072698;28;20048;-66
2021/04/26 09:55:31;;;;;;;13.48;5.70;;;;;;;11.79;37.99;96124.09;5010259;28;20066;-66
2021/04/26 09:57:57;;;;;;;11.13;5.18;;;;;;;11.64;37.76;96132.59;5010423;28;20053;-65
2021/04/26 10:00:24;;;;;;;13.95;5.97;;;;;;;11.66;37.75;96133.13;5009611;28;20246;-67
2021/04/26 10:02:50;;;;;;;12.48;5.20;;;;;;;11.82;37.64;96134.94;5010250;28;20072;-66
2021/04/26 10:05:17;;;;;;;10.55;4.85;;;;;;;12.01;36.24;96134.66;4993471;28;20134;-66
2021/04/26 10:07:42;;;;;;;14.50;5.20;;;;;;;12.32;35.05;96133.13;5009873;28;20496;-67
2021/04/26 10:10:09;;;;;;;10.13;4.78;;;;;;;12.48;33.94;96126.97;5009665;28;20096;-67
2021/04/26 10:12:35;;;;;;;11.88;4.50;;;;;;;12.65;33.52;96121.59;5010233;28;20062;-67
2021/04/26 10:15:01;;;;;;;11.13;5.40;;;;;;;12.37;34.41;96129.75;4993992;28;20045;-67
2021/04/26 10:17:30;;;;;;;11.85;4.97;;;;;;;12.19;35.03;96123.00;5010378;28;20089;-66
2021/04/26 10:19:56;;;;;;;12.38;5.38;;;;;;;12.49;34.77;96119.88;5010008;28;20061;-66
2021/04/26 10:22:33;;;;;;;12.77;5.78;;;;;;;12.59;34.58;96117.31;5010336;28;20550;-66
2021/04/26 10:24:59;;;;;;;8.85;4.55;;;;;;;12.73;32.62;96117.69;4994490;28;20042;-67
2021/04/26 10:27:29;;;;;;;9.45;4.45;;;;;;;12.68;31.72;96110.53;5017324;28;20049;-66
2021/04/26 10:30:01;;;;;;;10.80;4.20;;;;;;;12.19;32.30;96113.22;5022320;28;20092;-67
2021/04/26 10:32:30;;;;;;;11.20;4.80;;;;;;;12.20;35.24;96112.19;5054368;28;20053;-66
2021/04/26 10:35:14;;;;;;;10.25;5.05;;;;;;;12.33;33.67;96103.91;5083040;28;20044;-66
2021/04/26 10:37:41;;;;;;;11.98;4.93;;;;;;;11.99;33.52;96097.19;5078718;28;20040;-66
2021/04/26 10:40:35;;;;;;;9.75;4.65;;;;;;;12.15;32.71;96093.66;5077402;28;20060;-67
2021/04/26 10:43:01;;;;;;;9.75;4.47;;;;;;;12.59;33.44;96085.63;5079592;28;20067;-67
2021/04/26 10:45:31;;;;;;;10.40;4.35;;;;;;;12.69;32.75;96085.72;5078334;28;20037;-66
2021/04/26 10:48:12;;;;;;;12.57;4.75;;;;;;;12.69;33.40;96092.84;5076256;28;20036;-66
2021/04/26 10:50:51;;;;;;;11.48;5.10;;;;;;;12.58;32.64;96084.06;5076217;28;20500;-67
2021/04/26 10:53:17;;;;;;;9.95;4.50;;;;;;;12.62;31.83;96085.16;5076389;28;20044;-67
2021/04/26 10:55:53;;;;;;;10.52;4.88;;;;;;;12.64;33.41;96083.03;5076031;28;20463;-67
2021/04/26 10:58:35;;;;;;;10.55;4.70;;;;;;;12.85;32.87;96090.06;5076314;28;20052;-66
2021/04/26 11:01:01;;;;;;;11.10;5.10;;;;;;;12.81;32.44;96088.22;5076111;28;20036;-67
2021/04/26 11:03:40;;;;;;;12.05;5.25;;;;;;;12.71;32.26;96073.09;5076476;28;20119;-67
2021/04/26 11:06:25;;;;;;;13.52;5.20;;;;;;;12.70;32.41;96070.69;5076458;28;20090;-66
2021/04/26 11:08:54;;;;;;;11.18;5.13;;;;;;;12.92;32.38;96055.56;5075881;28;20036;-66
2021/04/26 11:11:31;;;;;;;11.25;4.90;;;;;;;13.20;33.51;96049.13;5075665;28;20036;-66
2021/04/26 11:13:59;;;;;;;10.20;4.88;;;;;;;13.53;31.83;96060.41;5075906;28;20040;-66
2021/04/26 11:16:27;;;;;;;9.90;4.53;;;;;;;13.33;31.63;96053.19;5075898;28;20040;-67
2021/04/26 11:19:11;;;;;;;10.90;5.15;;;;;;;13.41;30.88;96059.84;5057845;28;20118;-66
2021/04/26 11:21:55;;;;;;;10.68;4.78;;;;;;;13.51;30.15;96057.25;5075691;28;20674;-67
2021/04/26 11:25:00;;;;;;;11.43;4.60;;;;;;;13.28;31.39;96046.03;5076017;28;20056;-67
2021/04/26 11:27:26;;;;;;;11.98;4.80;;;;;;;12.92;32.21;96044.22;5075056;28;20041;-67
2021/04/26 11:30:15;;;;;;;13.32;5.13;;;;;;;12.86;32.46;96046.81;5056746;28;20043;-67
2021/04/26 11:33:15;;;;;;;11.77;4.35;;;;;;;13.07;31.12;96044.28;5075523;28;20451;-66
2021/04/26 11:36:09;;;;;;;11.88;4.53;;;;;;;13.22;31.52;96031.19;5013197;28;20048;-66
2021/04/26 11:38:38;;;;;;;10.07;4.65;;;;;;;13.59;30.09;96036.38;5013115;28;20093;-66